Ana Sayfa
METAR-TAF:

METAR-TAF

Havaalanları :

Piney Island, Kuzey Carolina, Amerika Birleşik Devletleri

Enlem: 35-01-20N, Boylam: 076-27-45W, yükseklik: 5 m

Güncel hava durumu gözlemi

Rapor saat 20:56 UTC de 50 dakika önce yapıldı.
Rüzgar kuzeydan 29 kt ve 38 kt'a kadar ani rüzgarlar
Sıcaklık 13°C
Nem 94%
Basınç 1013 hPa
1300 ft yükseklikte parçalı çok bulutlu
1800 ft yükseklikte çok bulutlu
hafif yağmur

METAR: KNBT 162056Z AUTO 01029G38KT -RA BKN013 OVC018 13/12 A2992 RMK AO2 PK WND 01041/2035 SLP136 P0000 60005 T01280117 55007 $

Saat: 16:46 (21:46 UTC)


TAF: eksik

4.000'den fazla havaalanı için hava durumu gözlemleri ve tahminleri (METAR ve TAF raporları).

Kullanılabilir istasyonlar harita üzerinde sarı ve kırmızı noktalarla gösterilir.

İstasyonun adını görmek için fareyi noktanın üzerinde gezdirin.

Sonrasında hava gözlem ve tahminlerini görmek için tıklayın.

Haritayı değiştirmek için: yaklaştırmak için siyah artı işaretli yeşil düğmeye ve uzaklaştırmak için de eksi işaretli düğmeye hızla tıklayın; bitişik haritalar için yeşil okları kullanın.


METAR-TAF: